Airfield :







YOU CAN JOIN US ON...

 
LOGIN :

Register | Disclaimer

   EN    FR    IT 

 









Legend :    VFR   Marginal VFR   IFR   Intensive IFR   Very Intensive IFR
Visi :
Ceiling :
>= 8 km
>= 3000ft
5 to 8 km
1000 to 3000 ft
1500m to 5 km
500 to 1000 ft
800 to 1500m
200 to 500 ft
< 800m
< 200 ft
Symbols :   Thunderstorms  Fog  Heavy snow  Heavy precipitations  Wind > 20 kt






- Airport Elevation : 792 ft
- IATA code : YSC


CYSC - Sherbrooke

CURRENT METAR :
  • 090820Z AUTO 02007KT 290V040 1 3/4SM +RA BR FEW004 SCT008 OVC014 14/13 A2974 RMK SLP076 DENSITY ALT 1100FT

EXPIRED METARs :
  • 090813Z AUTO 30010KT 290V090 6SM -RA BR FEW004 OVC014 14/14 A2977 RMK PRESRR SLP086 DENSITY ALT 1100FT
  • 090758Z AUTO 07007KT 020V090 2 1/2SM +RA BR FEW004 BKN012 BKN017 OVC022 14/14 A2973 RMK VIS VRB 1 1/4-3 LTNG DIST W PRESFR SLP073 DENSITY ALT 1100FT
  • 090743Z AUTO 05007KT 010V090 5SM RA BR FEW004 OVC014 14/14 A2975 RMK SLP078 DENSITY ALT 1100FT
  • 090734Z AUTO 05008KT 6SM -RA BR FEW004 OVC012 14/14 A2975 RMK SLP079 DENSITY ALT 1100FT
  • 090709Z AUTO 05008G15KT 5SM RA BR FEW004 OVC010 14/14 A2975 RMK LTNG DIST W SLP079 DENSITY ALT 1100FT
  • 090654Z AUTO 06008KT 9SM -RA FEW004 OVC010 15/15 A2975 RMK SLP080 DENSITY ALT 1200FT
  • 090636Z AUTO 05008KT 010V080 3SM -RA BR OVC008 16/15 A2976 RMK SLP082 DENSITY ALT 1300FT
  • 090618Z AUTO 04004KT 360V060 1 3/4SM RA BR BKN003 OVC008 16/15 A2976 RMK SLP082 DENSITY ALT 1300FT
  • 090600Z AUTO 05006KT 8SM -RA OVC003 16/16 A2976 RMK SLP080 DENSITY ALT 1400FT
  • 090554Z AUTO 05007KT 9SM -RA OVC003 16/16 A2976 RMK SLP080 DENSITY ALT 1400FT

Expired Forecast.
CZUL FIR / North America



MET'MAP, your aeronautical weather chart ! - Copyright ORBIFLY December 2007 - Disclaimer

ORBIFLY MET'MAP TEAM :

Programming & Development : Alexandra Zaïnal
Original concept : Baudouin d'Aumeries
Technical & hardware support : Manuel Goepfert
Assistance : Marc-Olivier Méhu




SOURCES & CREDITS :

   NOAA